»·PEaware :: N738SY KLAX-KSAN

N738SY :: KLAX-KSAN

FLIGHT INFORMATION

Flight Status: Arrived
Operator: Privately registered:
United States
More flights under this callsign
Pilot: Joseph G. (21201)
Aircraft: CESSNA 172 SKYHAWK
(C172)
More flights by this aircraft type
Origin: KLAX Los Angeles Intl
United States
Destination: KSAN San Diego Intl-Lindbergh
United States
More flights between these airports :: More routes between these airports
Route: +
File this flight plan on PilotEdge
Remarks: c10
Altitude:
(Current/Filed)
7,500ft
Speed:
(Current/Filed)
100kts
Departed: 24-Nov-18 09:15 PM
Arrived: 24-Nov-18 10:13 PM
Distance/Time
Traveled:
95nm/0:58
Distance/Time
To Go:
Arrived

Flight Plot

Page will automatically refresh every two minutes.


Map Options




Map Legend


Flown Route
Filed Route
Departure Airport
Arrival Airport
Navaid (VOR, NDB)
Fix

Horizontal Profiles

Position Reports

Time Latitude Longitude Heading Altitude Ground
Speed
24-Nov-18 21:11 33.941810 -118.394108 267 129ft 0kts
24-Nov-18 21:12 33.941810 -118.394113 267 129ft 0kts
24-Nov-18 21:13 33.941616 -118.394223 173 129ft 9kts
24-Nov-18 21:14 33.939642 -118.391861 88 129ft 9kts
24-Nov-18 21:15 33.939801 -118.388162 183 129ft 7kts
24-Nov-18 21:16 33.939768 -118.388164 182 129ft 0kts
24-Nov-18 21:17 33.939161 -118.388095 206 129ft 16kts
24-Nov-18 21:18 33.936561 -118.406980 255 686ft 77kts
24-Nov-18 21:19 33.933703 -118.435123 264 1513ft 91kts
24-Nov-18 21:20 33.916290 -118.453895 193 2309ft 95kts
24-Nov-18 21:21 33.891438 -118.460734 193 3171ft 87kts
24-Nov-18 21:22 33.870807 -118.459813 106 4045ft 72kts
24-Nov-18 21:23 33.861208 -118.438149 127 4719ft 80kts
24-Nov-18 21:24 33.845138 -118.416878 129 5333ft 91kts
24-Nov-18 21:25 33.827170 -118.393560 129 5940ft 97kts
24-Nov-18 21:26 33.808545 -118.369401 128 6535ft 100kts
24-Nov-18 21:27 33.790330 -118.345782 129 7093ft 109kts
24-Nov-18 21:28 33.769267 -118.318489 129 7496ft 119kts
24-Nov-18 21:29 33.746206 -118.288677 129 7537ft 119kts
24-Nov-18 21:30 33.725084 -118.261332 128 7913ft 106kts
24-Nov-18 21:31 33.704269 -118.236815 133 8311ft 103kts
24-Nov-18 21:32 33.687171 -118.218092 132 8745ft 93kts
24-Nov-18 21:33 33.666265 -118.195171 131 9438ft 81kts
24-Nov-18 21:34 33.652979 -118.177399 100 9845ft 78kts
24-Nov-18 21:35 33.638626 -118.160871 147 9798ft 117kts
24-Nov-18 21:36 33.607495 -118.129114 133 9306ft 122kts
24-Nov-18 21:37 33.582998 -118.102206 133 9468ft 127kts
24-Nov-18 21:38 33.561209 -118.078380 134 9500ft 125kts
24-Nov-18 21:39 33.530523 -118.044964 134 9499ft 128kts
24-Nov-18 21:40 33.508484 -118.020976 134 9501ft 128kts
24-Nov-18 21:41 33.481926 -117.992072 134 9501ft 128kts
24-Nov-18 21:42 33.455485 -117.963332 134 9500ft 128kts
24-Nov-18 21:43 33.429257 -117.934267 133 9501ft 128kts
24-Nov-18 21:44 33.403134 -117.904931 134 9501ft 128kts
24-Nov-18 21:45 33.376389 -117.876361 141 9499ft 129kts
24-Nov-18 21:46 33.346687 -117.852054 143 9505ft 129kts
24-Nov-18 21:47 33.316946 -117.827516 142 9506ft 129kts
24-Nov-18 21:48 33.287295 -117.802877 142 9506ft 130kts
24-Nov-18 21:49 33.257913 -117.778603 142 9495ft 124kts
24-Nov-18 21:50 33.229888 -117.755475 142 9498ft 121kts
24-Nov-18 21:51 33.202317 -117.732598 142 9503ft 120kts
24-Nov-18 21:52 33.174748 -117.709629 142 9501ft 121kts
24-Nov-18 21:53 33.147111 -117.686459 142 9512ft 121kts
24-Nov-18 21:54 33.119057 -117.662758 142 9506ft 124kts
24-Nov-18 21:55 33.090857 -117.638772 142 9504ft 124kts
24-Nov-18 21:56 33.062714 -117.614673 142 9504ft 124kts
24-Nov-18 21:57 33.034866 -117.590091 127 9495ft 124kts
24-Nov-18 21:58 33.018445 -117.555183 113 9506ft 121kts
24-Nov-18 21:59 32.999090 -117.522105 138 9490ft 125kts
24-Nov-18 22:00 32.979678 -117.489650 120 9492ft 122kts
24-Nov-18 22:01 32.957528 -117.458450 128 9499ft 124kts
24-Nov-18 22:02 32.934839 -117.427690 128 9500ft 124kts
24-Nov-18 22:03 32.911880 -117.396649 128 9500ft 124kts
24-Nov-18 22:04 32.892763 -117.367516 127 9501ft 124kts
24-Nov-18 22:05 32.869652 -117.336589 129 9500ft 125kts
24-Nov-18 22:06 32.846263 -117.305997 129 9507ft 125kts
24-Nov-18 22:07 32.822834 -117.275334 128 8844ft 133kts
24-Nov-18 22:08 32.797315 -117.242290 135 6526ft 136kts
24-Nov-18 22:09 32.789898 -117.211390 354 4284ft 120kts
24-Nov-18 22:10 32.779378 -117.230813 164 2511ft 121kts
24-Nov-18 22:11 32.759073 -117.206469 115 1362ft 95kts
24-Nov-18 22:12 32.748922 -117.176860 108 975ft 93kts
24-Nov-18 22:13 32.739797 -117.147626 134 1053ft 90kts
24-Nov-18 22:14 32.727670 -117.163055 280 611ft 63kts
24-Nov-18 22:15 32.732193 -117.184038 286 125ft 67kts
24-Nov-18 22:16 32.734191 -117.194871 231 18ft 1kts
24-Nov-18 22:17 32.733678 -117.197067 205 18ft 3kts
24-Nov-18 22:18 32.733103 -117.196783 142 18ft 0kts

Navigation Log

Ident Type
Flight plan parsing failed, navigation log unavailable